• Join FlightAware (Why Join?)
  • Login
  • US Flag 
05:23PM EDT


 

Airport Tracker/Info


-or-


 

Live Flight TrackerFlight Track Log ✈ JBU1329 ✈ 11-May-2013 ✈ KBOS - KBWI

Flight Track Log - Related Links

Times and Time Zones

All times are in EDT time to prevent confusion due to time zone crossing. See the JBU1329 flight status page for this flight to view local times or setup timezone preferences in your user account.

Time Position Orientation Groundspeed Altitude Reporting Facility
EDT Latitude Longitude Course Direction KTS MPH feet Rate Location/Type
09:17AM 42.3500 -71.0167 270° West 140 161 900  Level KA90
09:17AM 42.3333 -71.0167 180° South 154 177 2,000 2,400 Climbing KA90
09:19AM 42.3769 -70.7321 172° South  Level FlightAware Approximate
09:19AM 42.3183 -70.8536 97° East 264 304 6,400  Level Boston Center
09:20AM 42.2856 -70.7383 228° Southwest  Level FlightAware Approximate
09:20AM 42.3147 -70.7442 93° East 277 319 9,700  Level Boston Center
09:21AM 42.2227 -70.8415 240° Southwest  Level FlightAware Approximate
09:21AM 42.2331 -70.7239 170° South 242 278 11,500  Level Boston Center
09:22AM 42.1833 -70.9613 270° West  Level FlightAware Approximate
09:22AM 42.1761 -70.8125 229° Southwest 218 251 14,000  Level Boston Center
09:23AM 42.1592 -70.9417 260° West 278 320 16,600 2,280 Climbing Boston Center
09:24AM 42.1467 -71.1017 264° West 346 398 19,100 2,100 Climbing Boston Center
09:25AM 42.1314 -71.2281 261° West 377 434 21,300 1,800 Climbing Boston Center
09:26AM 42.0889 -71.3575 246° West 383 441 22,800 1,500 Climbing Boston Center
09:27AM 42.0442 -71.4867 245° Southwest 383 441 24,300 1,320 Climbing Boston Center
09:28AM 41.9931 -71.6161 242° Southwest 388 447 25,500 1,200 Climbing Boston Center
09:29AM 41.9439 -71.7536 244° Southwest 394 453 26,700 1,200 Climbing Boston Center
09:30AM 41.8969 -71.8933 246° West 404 465 28,000 600 Climbing Boston Center
09:31AM 41.8578 -71.9997 244° Southwest 409 471 28,000  Level Boston Center
09:32AM 41.7997 -72.1617 244° Southwest 404 465 28,000  Level Boston Center
09:33AM 41.7522 -72.2953 245° Southwest 404 465 28,000 -60 Level Boston Center
09:34AM 41.7003 -72.4400 244° Southwest 404 465 27,900  Descending Boston Center
09:35AM 41.6522 -72.5706 244° Southwest 404 465 28,000  Climbing Boston Center
09:36AM 41.6039 -72.7039 244° Southwest 404 465 28,000  Level Boston Center
09:37AM 41.5578 -72.8369 245° Southwest 404 465 28,000 -60 Level Boston Center
09:38AM 41.5156 -72.9531 244° Southwest 399 459 27,900 -60 Descending Boston Center
09:39AM 41.4692 -73.0828 245° Southwest 399 459 27,900  Level Boston Center
09:40AM 41.4139 -73.2289 243° Southwest 399 459 28,000  Climbing Boston Center
09:42AM 41.2956 -73.5436 243° Southwest 386 444 27,900  Descending New York Center
09:43AM 41.2344 -73.6625 236° Southwest 386 444 28,000  Climbing New York Center
09:44AM 41.1672 -73.7753 232° Southwest 391 450 27,900  Descending New York Center
09:45AM 41.1017 -73.8936 234° Southwest 396 456 28,000  Climbing New York Center
09:46AM 41.0319 -74.0058 231° Southwest 402 463 27,900 -60 Descending New York Center
09:47AM 40.9664 -74.1181 232° Southwest 402 463 27,900  Level New York Center
09:48AM 40.8986 -74.2219 229° Southwest 408 470 27,900  Level New York Center
09:49AM 40.8286 -74.3336 230° Southwest 408 470 27,900  Level New York Center
09:50AM 40.7628 -74.4450 232° Southwest 408 470 28,000  Climbing New York Center
09:51AM 40.6944 -74.5619 232° Southwest 408 470 27,900 -60 Descending New York Center
09:52AM 40.6264 -74.6703 230° Southwest 403 464 27,900  Level New York Center
09:53AM 40.5561 -74.7808 230° Southwest 403 464 27,900 -480 Level New York Center
09:54AM 40.4858 -74.8831 228° Southwest 396 456 27,000 -1,200 Descending New York Center
09:55AM 40.4111 -74.9878 227° Southwest 378 435 25,600 -1,800 Descending New York Center
09:56AM 40.3433 -75.0817 227° Southwest 365 420 23,500 -2,100 Descending New York Center
09:57AM 40.2753 -75.1753 226° Southwest 360 414 21,400 -2,040 Descending New York Center
09:58AM 40.2111 -75.2692 228° Southwest 360 414 19,400 -1,920 Descending New York Center
09:59AM 40.1453 -75.3544 225° Southwest 355 409 17,600 -1,260 Descending New York Center
10:00AM 40.0944 -75.4272 228° Southwest 327 376 17,000 -360 Descending New York Center
10:01AM 40.0283 -75.5203 227° Southwest 322 371 17,000  Level New York Center
10:02AM 39.9689 -75.6003 226° Southwest 317 365 17,000  Level New York Center
10:03AM 39.9111 -75.6828 228° Southwest 317 365 17,000  Level New York Center
10:04AM 39.8611 -75.7794 236° Southwest 317 365 17,000 -300 Level New York Center
10:05AM 39.8111 -75.8758 236° Southwest 317 365 16,500 -1,620 Descending New York Center
10:06AM 39.7611 -75.9722 236° Southwest 317 365 13,900 -1,440 Descending New York Center
10:09AM 39.6500 -76.1667 233° Southwest 264 304 11,900 -1,140 Descending Potomac TRACON
10:10AM 39.6167 -76.2500 243° Southwest 261 300 10,300 -1,500 Descending Potomac TRACON
10:11AM 39.5667 -76.3167 226° Southwest 258 297 8,900 -1,560 Descending Potomac TRACON
10:12AM 39.5167 -76.3667 218° Southwest 250 288 7,200 -1,620 Descending Potomac TRACON
10:13AM 39.4667 -76.4167 218° Southwest 247 284 5,800 -1,620 Descending Potomac TRACON
10:14AM 39.3833 -76.4167 180° South 257 296 4,200 -960 Descending Potomac TRACON
10:14AM 39.3167 -76.4167 180° South 257 296 4,000 -300 Descending Potomac TRACON
10:16AM 39.2500 -76.4500 201° Southwest 245 282 3,600 -960 Descending Potomac TRACON
10:17AM 39.1833 -76.4833 201° Southwest 242 278 2,100 -840 Descending Potomac TRACON
10:18AM 39.1500 -76.5333 229° Southwest 193 222 2,000 -300 Descending Potomac TRACON
10:19AM 39.1333 -76.5833 247° West 159 183 1,600 -420 Descending Potomac TRACON